createdAt,value
2018-09-13T00:02:16.321Z,8.90
2018-09-13T00:04:46.092Z,8.20
2018-09-13T00:07:15.705Z,8.73
2018-09-13T00:09:45.318Z,8.27
2018-09-13T00:12:14.840Z,7.70
2018-09-13T00:14:44.530Z,8.40
2018-09-13T00:17:14.273Z,8.43
2018-09-13T00:19:43.772Z,8.17
2018-09-13T00:22:13.301Z,8.60
2018-09-13T00:24:43.029Z,8.10
2018-09-13T00:27:12.565Z,8.33
2018-09-13T00:29:42.096Z,7.87
2018-09-13T00:32:11.582Z,7.93
2018-09-13T00:34:41.168Z,8.47
2018-09-13T00:37:11.860Z,7.87
2018-09-13T00:39:41.399Z,8.83
2018-09-13T00:42:10.964Z,8.37
2018-09-13T00:44:41.454Z,8.57
2018-09-13T00:47:13.365Z,9.03
2018-09-13T00:49:43.946Z,8.90
2018-09-13T00:52:13.794Z,15.90
2018-09-13T00:54:43.444Z,13.57
2018-09-13T00:57:13.094Z,12.47
2018-09-13T00:59:42.579Z,8.97
2018-09-13T01:02:12.050Z,9.10
2018-09-13T01:04:42.050Z,9.83
2018-09-13T01:07:11.738Z,9.60
2018-09-13T01:09:41.333Z,10.10
2018-09-13T01:12:10.846Z,9.97
2018-09-13T01:14:40.494Z,10.17
2018-09-13T01:17:10.623Z,11.10
2018-09-13T01:19:40.272Z,11.33
2018-09-13T01:22:09.995Z,10.90
2018-09-13T01:24:39.489Z,10.93
2018-09-13T01:27:09.116Z,11.00
2018-09-13T01:29:38.496Z,10.97
2018-09-13T01:32:08.929Z,10.83
2018-09-13T01:34:38.734Z,11.03
2018-09-13T01:37:08.395Z,11.07
2018-09-13T01:39:38.155Z,11.23
2018-09-13T01:42:07.725Z,11.10
2018-09-13T01:44:37.263Z,11.43
2018-09-13T01:47:07.108Z,11.00
2018-09-13T01:49:36.709Z,11.23
2018-09-13T01:52:06.236Z,11.37
2018-09-13T01:54:36.317Z,10.67
2018-09-13T01:57:05.818Z,11.87
2018-09-13T01:59:35.478Z,11.00
2018-09-13T02:02:05.383Z,11.30
2018-09-13T02:04:35.046Z,10.90
2018-09-13T02:07:05.068Z,10.90
2018-09-13T02:09:34.920Z,11.50
2018-09-13T02:12:04.505Z,10.90
2018-09-13T02:14:34.213Z,10.97
2018-09-13T02:17:04.821Z,10.93
2018-09-13T02:19:34.588Z,9.70
2018-09-13T02:22:04.353Z,11.90
2018-09-13T02:24:33.870Z,11.30
2018-09-13T02:27:03.412Z,11.87
2018-09-13T02:29:32.994Z,12.27
2018-09-13T02:32:02.558Z,12.40
2018-09-13T02:34:32.104Z,12.50
2018-09-13T02:37:01.845Z,11.40
2018-09-13T02:39:31.709Z,10.87
2018-09-13T02:42:01.476Z,12.17
2018-09-13T02:44:31.100Z,12.13
2018-09-13T02:47:02.135Z,12.07
2018-09-13T02:49:31.629Z,12.67
2018-09-13T02:52:01.156Z,12.17
2018-09-13T02:54:30.660Z,11.77
2018-09-13T02:57:01.068Z,12.57
2018-09-13T02:59:30.637Z,12.13
2018-09-13T03:02:00.329Z,12.70
2018-09-13T03:04:30.122Z,11.97
2018-09-13T03:06:59.695Z,11.30
2018-09-13T03:09:29.276Z,10.67
2018-09-13T03:11:58.828Z,10.90
2018-09-13T03:14:28.405Z,12.17
2018-09-13T03:16:58.057Z,11.23
2018-09-13T03:19:27.564Z,11.60
2018-09-13T03:21:57.242Z,10.90
2018-09-13T03:24:26.735Z,11.97
2018-09-13T03:26:56.638Z,11.93
2018-09-13T03:29:26.437Z,11.37
2018-09-13T03:31:55.976Z,11.90
2018-09-13T03:34:25.653Z,12.33
2018-09-13T03:36:55.213Z,11.17
2018-09-13T03:39:24.795Z,11.50
2018-09-13T03:41:54.714Z,11.30
2018-09-13T03:44:24.347Z,11.47
2018-09-13T03:46:53.884Z,11.47
2018-09-13T03:49:23.486Z,12.63
2018-09-13T03:51:53.290Z,12.70
2018-09-13T03:54:23.787Z,13.20
2018-09-13T03:56:53.731Z,12.47
2018-09-13T03:59:23.405Z,12.40
2018-09-13T04:01:53.019Z,12.00
2018-09-13T04:04:22.884Z,11.33
2018-09-13T04:06:53.331Z,12.37
2018-09-13T04:09:23.186Z,10.77
2018-09-13T04:11:52.893Z,11.67
2018-09-13T04:14:22.686Z,12.13
2018-09-13T04:16:52.145Z,12.37
2018-09-13T04:19:22.160Z,12.90
2018-09-13T04:21:51.723Z,13.13
2018-09-13T04:24:21.231Z,13.57
2018-09-13T04:26:50.820Z,13.73
2018-09-13T04:29:20.630Z,15.27
2018-09-13T04:31:50.258Z,14.83
2018-09-13T04:34:19.945Z,13.57
2018-09-13T04:36:49.572Z,14.23
2018-09-13T04:39:19.120Z,14.07
2018-09-13T04:41:48.777Z,13.13
2018-09-13T04:44:18.284Z,12.73
2018-09-13T04:46:47.860Z,12.17
2018-09-13T04:49:17.575Z,13.40
2018-09-13T04:51:47.063Z,12.43
2018-09-13T04:54:16.797Z,11.87
2018-09-13T04:56:46.428Z,12.30
2018-09-13T04:59:15.942Z,12.57
2018-09-13T05:01:45.557Z,10.43
2018-09-13T05:04:15.086Z,10.50
2018-09-13T05:06:45.038Z,10.77
2018-09-13T05:09:15.164Z,11.03
2018-09-13T05:11:44.873Z,12.13
2018-09-13T05:14:14.588Z,13.03
2018-09-13T05:16:44.494Z,17.80
2018-09-13T05:19:14.094Z,13.00
2018-09-13T05:21:43.807Z,13.53
2018-09-13T05:24:13.813Z,14.73
2018-09-13T05:26:43.219Z,15.57
2018-09-13T05:29:12.716Z,14.13
2018-09-13T05:31:42.453Z,17.50
2018-09-13T05:34:12.437Z,14.63
2018-09-13T05:36:42.509Z,13.23
2018-09-13T05:39:14.172Z,14.23
2018-09-13T05:41:44.272Z,17.03
2018-09-13T05:44:14.513Z,16.97
2018-09-13T05:46:44.169Z,16.83
2018-09-13T05:49:13.722Z,15.97
2018-09-13T05:51:43.620Z,15.03
2018-09-13T05:54:13.181Z,14.33
2018-09-13T05:56:43.507Z,12.53
2018-09-13T05:59:13.008Z,13.47
2018-09-13T06:01:42.589Z,11.40
2018-09-13T06:04:12.221Z,11.30
2018-09-13T06:06:41.632Z,11.07
2018-09-13T06:09:11.077Z,11.17
2018-09-13T06:11:40.901Z,11.93
2018-09-13T06:14:10.452Z,11.30
2018-09-13T06:16:41.092Z,11.80
2018-09-13T06:19:10.989Z,11.13
2018-09-13T06:21:41.485Z,10.60
2018-09-13T06:24:11.336Z,10.90
2018-09-13T06:26:41.003Z,11.83
2018-09-13T06:29:10.590Z,11.30
2018-09-13T06:31:40.441Z,12.23
2018-09-13T06:34:09.930Z,11.87
2018-09-13T06:36:39.447Z,11.13
2018-09-13T06:39:10.817Z,10.53
2018-09-13T06:41:40.445Z,8.60
2018-09-13T06:44:10.730Z,7.90
2018-09-13T06:46:40.590Z,7.40
2018-09-13T06:49:10.227Z,7.30
2018-09-13T06:51:39.772Z,7.50
2018-09-13T06:54:09.511Z,7.07
2018-09-13T06:56:39.345Z,7.43
2018-09-13T06:59:09.150Z,7.23
2018-09-13T07:01:38.794Z,7.03
2018-09-13T07:04:08.388Z,7.57
2018-09-13T07:06:38.280Z,8.23
2018-09-13T07:09:12.104Z,8.63
2018-09-13T07:11:41.978Z,8.07
2018-09-13T07:14:11.400Z,8.27
2018-09-13T07:16:41.116Z,7.93
2018-09-13T07:19:10.665Z,9.97
2018-09-13T07:21:40.145Z,8.83
2018-09-13T07:24:10.119Z,8.47
2018-09-13T07:26:39.776Z,7.40
2018-09-13T07:29:09.230Z,8.73
2018-09-13T07:31:38.886Z,8.90
2018-09-13T07:34:08.965Z,8.03
2018-09-13T07:36:38.654Z,11.27
2018-09-13T07:39:11.757Z,8.67
2018-09-13T07:41:41.565Z,8.03
2018-09-13T07:44:11.233Z,7.30
2018-09-13T07:46:41.862Z,7.57
2018-09-13T07:49:11.504Z,6.83
2018-09-13T07:51:41.210Z,7.47
2018-09-13T07:54:10.987Z,6.93
2018-09-13T07:56:40.628Z,6.53
2018-09-13T07:59:10.136Z,7.90
2018-09-13T08:01:39.709Z,6.77
2018-09-13T08:04:09.446Z,5.93
2018-09-13T08:06:39.997Z,8.00
2018-09-13T08:09:12.688Z,6.40
2018-09-13T08:11:42.539Z,6.27
2018-09-13T08:14:12.615Z,6.10
2018-09-13T08:16:42.159Z,6.70
2018-09-13T08:19:11.814Z,6.23
2018-09-13T08:21:42.551Z,7.13
2018-09-13T08:24:12.017Z,6.23
2018-09-13T08:26:42.462Z,5.80
2018-09-13T08:29:12.067Z,7.47
2018-09-13T08:31:42.170Z,6.80
2018-09-13T08:34:12.267Z,6.93
2018-09-13T08:36:42.088Z,7.33
2018-09-13T08:39:12.416Z,7.50
2018-09-13T08:41:42.125Z,7.20
2018-09-13T08:44:12.855Z,9.13
2018-09-13T08:46:42.397Z,7.40
2018-09-13T08:49:11.960Z,7.00
2018-09-13T08:51:44.224Z,7.00
2018-09-13T08:54:13.847Z,6.50
2018-09-13T08:56:43.586Z,6.60
2018-09-13T08:59:13.214Z,7.67
2018-09-13T09:01:42.790Z,7.93
2018-09-13T09:04:12.733Z,8.43
2018-09-13T09:06:42.302Z,7.07
2018-09-13T09:09:13.050Z,7.90
2018-09-13T09:11:42.837Z,7.90
2018-09-13T09:14:12.255Z,7.27
2018-09-13T09:16:41.954Z,8.20
2018-09-13T09:19:11.474Z,7.57
2018-09-13T09:21:41.317Z,8.37
2018-09-13T09:24:10.996Z,6.07
2018-09-13T09:26:40.599Z,6.83
2018-09-13T09:29:09.991Z,7.60
2018-09-13T09:31:39.476Z,6.90
2018-09-13T09:34:09.331Z,6.50
2018-09-13T09:36:38.949Z,7.20
2018-09-13T09:39:13.356Z,5.57
2018-09-13T09:41:43.430Z,6.43
2018-09-13T09:44:13.019Z,5.83
2018-09-13T09:46:42.881Z,5.40
2018-09-13T09:49:12.570Z,6.20
2018-09-13T09:51:42.222Z,26.53
2018-09-13T09:54:11.702Z,4.40
2018-09-13T09:56:41.370Z,4.80
2018-09-13T09:59:11.007Z,4.60
2018-09-13T10:01:45.739Z,4.90
2018-09-13T10:04:15.304Z,5.00
2018-09-13T10:06:44.988Z,4.43
2018-09-13T10:09:14.571Z,4.40
2018-09-13T10:11:44.094Z,5.00
2018-09-13T10:14:13.700Z,5.23
2018-09-13T10:16:48.085Z,4.70
2018-09-13T10:19:22.766Z,5.07
2018-09-13T10:21:57.894Z,4.87
2018-09-13T10:24:32.286Z,4.63
2018-09-13T10:27:07.020Z,4.80
2018-09-13T10:30:41.492Z,4.70
2018-09-13T10:33:15.981Z,5.00
2018-09-13T10:35:50.339Z,8.97
2018-09-13T10:38:24.914Z,6.50
2018-09-13T10:40:59.477Z,5.23
2018-09-13T10:43:33.881Z,6.33
2018-09-13T10:46:08.867Z,5.87
2018-09-13T10:48:40.005Z,5.80
2018-09-13T10:51:12.857Z,4.97
2018-09-13T10:53:45.448Z,5.93
2018-09-13T10:56:14.954Z,9.83
2018-09-13T10:58:44.875Z,6.07
2018-09-13T11:01:14.541Z,5.60
2018-09-13T11:03:44.066Z,5.70
2018-09-13T11:06:13.705Z,4.80
2018-09-13T11:08:43.399Z,5.10
2018-09-13T11:11:13.430Z,4.33
2018-09-13T11:13:53.203Z,4.80
2018-09-13T11:16:23.024Z,4.72
2018-09-13T11:18:52.796Z,5.10
2018-09-13T11:21:22.434Z,4.80
2018-09-13T11:23:52.075Z,4.50
2018-09-13T11:26:21.679Z,4.23
2018-09-13T11:28:51.206Z,4.23
2018-09-13T11:31:20.757Z,5.00
2018-09-13T11:33:50.587Z,4.87
2018-09-13T11:36:20.207Z,5.25
2018-09-13T11:38:49.706Z,6.20
2018-09-13T11:41:19.349Z,4.93
2018-09-13T11:43:49.453Z,5.00
2018-09-13T11:46:19.060Z,4.87
2018-09-13T11:48:48.595Z,4.55
2018-09-13T11:51:18.138Z,4.47
2018-09-13T11:53:47.878Z,4.50
2018-09-13T11:56:17.521Z,5.20
2018-09-13T11:58:47.134Z,5.93
2018-09-13T12:01:16.998Z,5.30
2018-09-13T12:03:46.612Z,5.25
2018-09-13T12:06:16.284Z,5.37
2018-09-13T12:08:45.852Z,5.63
2018-09-13T12:11:15.494Z,6.50
2018-09-13T12:13:45.977Z,5.40
2018-09-13T12:16:15.553Z,5.70
2018-09-13T12:18:45.172Z,5.60
2018-09-13T12:21:14.701Z,5.30
2018-09-13T12:23:44.177Z,4.67
2018-09-13T12:26:15.561Z,5.40
2018-09-13T12:28:44.950Z,4.77
2018-09-13T12:31:14.411Z,5.03
2018-09-13T12:34:09.749Z,5.62
2018-09-13T12:36:39.728Z,5.57
2018-09-13T12:39:11.492Z,5.63
2018-09-13T12:41:41.842Z,5.03
2018-09-13T12:44:12.240Z,5.20
2018-09-13T12:46:42.027Z,4.97
2018-09-13T12:49:13.727Z,5.03
2018-09-13T12:51:43.353Z,5.30
2018-09-13T12:54:13.305Z,5.73
2018-09-13T12:56:43.265Z,5.67
2018-09-13T12:59:12.808Z,5.13
2018-09-13T13:01:42.727Z,4.87
2018-09-13T13:04:12.496Z,5.03
2018-09-13T13:06:42.057Z,4.67
2018-09-13T13:09:12.115Z,5.37
2018-09-13T13:11:41.963Z,5.50
2018-09-13T13:14:11.698Z,5.43
2018-09-13T13:16:41.608Z,6.87
2018-09-13T13:19:11.540Z,5.43
2018-09-13T13:21:42.120Z,5.60
2018-09-13T13:24:12.312Z,6.13
2018-09-13T13:26:41.827Z,5.73
2018-09-13T13:29:11.420Z,5.67
2018-09-13T13:31:41.031Z,6.33
2018-09-13T13:34:10.777Z,6.57
2018-09-13T13:36:40.665Z,13.23
2018-09-13T13:39:11.999Z,5.67
2018-09-13T13:41:41.554Z,6.17
2018-09-13T13:44:11.321Z,5.37
2018-09-13T13:46:41.102Z,7.30
2018-09-13T13:49:10.889Z,6.30
2018-09-13T13:51:40.780Z,5.63
2018-09-13T13:54:10.481Z,5.80
2018-09-13T13:56:39.995Z,4.90
2018-09-13T13:59:10.840Z,5.60
2018-09-13T14:01:40.596Z,4.90
2018-09-13T14:04:10.289Z,5.77
2018-09-13T14:06:40.252Z,5.67
2018-09-13T14:09:12.966Z,5.67
2018-09-13T14:11:42.645Z,5.83
2018-09-13T14:14:12.212Z,5.43
2018-09-13T14:16:41.830Z,6.10
2018-09-13T14:19:11.420Z,5.67
2018-09-13T14:21:41.174Z,6.30
2018-09-13T14:24:11.128Z,5.80
2018-09-13T14:26:40.845Z,6.03
2018-09-13T14:29:10.336Z,6.20
2018-09-13T14:31:40.298Z,13.25
2018-09-13T14:34:10.103Z,6.70
2018-09-13T14:36:39.671Z,6.27
2018-09-13T14:39:10.847Z,5.90
2018-09-13T14:41:40.989Z,5.47
2018-09-13T14:44:10.805Z,10.93
2018-09-13T14:46:40.382Z,6.60
2018-09-13T14:49:10.523Z,5.50
2018-09-13T14:51:40.631Z,6.50
2018-09-13T14:54:10.136Z,5.60
2018-09-13T14:56:39.758Z,6.00
2018-09-13T14:59:09.525Z,5.50
2018-09-13T15:02:09.777Z,6.10
2018-09-13T15:04:39.461Z,6.57
2018-09-13T15:07:09.235Z,5.80
2018-09-13T15:09:38.847Z,6.90
2018-09-13T15:12:08.506Z,6.40
2018-09-13T15:14:38.196Z,6.53
2018-09-13T15:17:07.841Z,5.93
2018-09-13T15:19:37.329Z,11.80
2018-09-13T15:22:07.401Z,7.53
2018-09-13T15:24:37.229Z,20.80
2018-09-13T15:27:06.791Z,7.37
2018-09-13T15:29:36.382Z,8.00
2018-09-13T15:32:05.869Z,6.63
2018-09-13T15:34:35.545Z,6.50
2018-09-13T15:37:05.188Z,7.07
2018-09-13T15:39:34.848Z,7.87
2018-09-13T15:42:04.607Z,7.80
2018-09-13T15:44:34.378Z,7.00
2018-09-13T15:47:04.133Z,7.10
2018-09-13T15:49:33.776Z,7.13
2018-09-13T15:52:03.732Z,7.37
2018-09-13T15:54:33.285Z,7.93
2018-09-13T15:57:02.967Z,7.30
2018-09-13T15:59:32.752Z,7.90
2018-09-13T16:02:02.477Z,7.90
2018-09-13T16:04:32.363Z,7.17
2018-09-13T16:07:02.315Z,7.00
2018-09-13T16:09:32.006Z,7.47
2018-09-13T16:13:04.488Z,7.97
2018-09-13T16:15:34.345Z,7.27
2018-09-13T16:18:04.050Z,6.93
2018-09-13T16:20:33.616Z,7.47
2018-09-13T16:23:03.129Z,8.93
2018-09-13T16:25:33.203Z,9.43
2018-09-13T16:28:03.025Z,9.10
2018-09-13T16:30:33.066Z,9.23
2018-09-13T16:33:02.779Z,8.60
2018-09-13T16:35:32.405Z,8.43
2018-09-13T16:38:08.584Z,7.40
2018-09-13T16:40:43.291Z,8.20
2018-09-13T16:43:15.007Z,9.00
2018-09-13T16:45:44.650Z,9.20
2018-09-13T16:48:14.264Z,8.90
2018-09-13T16:50:43.993Z,9.37
2018-09-13T16:53:13.949Z,8.67
2018-09-13T16:55:43.483Z,8.83
2018-09-13T16:58:13.238Z,8.43
2018-09-13T17:00:42.990Z,8.80
2018-09-13T17:03:12.643Z,7.63
2018-09-13T17:05:42.503Z,10.43
2018-09-13T17:08:12.171Z,12.03
2018-09-13T17:10:41.828Z,12.30
2018-09-13T17:13:11.453Z,10.50
2018-09-13T17:15:41.888Z,10.70
2018-09-13T17:18:11.489Z,8.67
2018-09-13T17:20:40.984Z,8.13
2018-09-13T17:23:10.549Z,7.60
2018-09-13T17:25:40.139Z,7.97
2018-09-13T17:28:13.906Z,6.57
2018-09-13T17:30:44.566Z,5.97
2018-09-13T17:33:14.283Z,6.80
2018-09-13T17:35:43.880Z,6.73
2018-09-13T17:38:13.518Z,7.43
2018-09-13T17:40:43.105Z,7.17
2018-09-13T17:43:12.703Z,7.73
2018-09-13T17:45:43.272Z,7.93
2018-09-13T17:48:13.136Z,9.37
2018-09-13T17:50:43.091Z,7.70
2018-09-13T17:53:12.745Z,7.07
2018-09-13T17:55:42.532Z,7.70
2018-09-13T17:58:12.608Z,6.23
2018-09-13T18:00:42.549Z,7.23
2018-09-13T18:03:12.560Z,8.33
2018-09-13T18:05:42.214Z,11.23
2018-09-13T18:08:12.025Z,8.27
2018-09-13T18:10:41.870Z,6.77
2018-09-13T18:13:11.468Z,7.20
2018-09-13T18:15:40.998Z,6.53
2018-09-13T18:18:11.647Z,7.67
2018-09-13T18:20:41.426Z,7.17
2018-09-13T18:23:11.439Z,7.10
2018-09-13T18:25:41.138Z,8.33
2018-09-13T18:28:10.706Z,7.50
2018-09-13T18:30:40.647Z,7.53
2018-09-13T18:33:10.218Z,7.23
2018-09-13T18:35:39.891Z,7.73
2018-09-13T18:38:09.797Z,6.37
2018-09-13T18:40:39.761Z,5.70
2018-09-13T18:43:09.810Z,6.50
2018-09-13T18:45:39.693Z,6.40
2018-09-13T18:48:09.262Z,7.40
2018-09-13T18:50:38.924Z,7.27
2018-09-13T18:53:08.460Z,6.60
2018-09-13T18:55:38.334Z,6.87
2018-09-13T18:58:08.073Z,6.73
2018-09-13T19:00:38.155Z,6.97
2018-09-13T19:03:07.960Z,7.23
2018-09-13T19:05:37.916Z,6.80
2018-09-13T19:08:07.597Z,7.40
2018-09-13T19:10:38.033Z,7.50
2018-09-13T19:13:07.984Z,6.80
2018-09-13T19:15:37.807Z,6.90
2018-09-13T19:18:07.378Z,7.17
2018-09-13T19:20:37.008Z,6.93
2018-09-13T19:23:06.788Z,6.87
2018-09-13T19:25:36.352Z,16.43
2018-09-13T19:28:06.024Z,7.60
2018-09-13T19:30:35.569Z,11.70
2018-09-13T19:33:05.393Z,7.67
2018-09-13T19:35:34.988Z,8.10
2018-09-13T19:38:04.561Z,8.00
2018-09-13T19:40:34.139Z,7.13
2018-09-13T19:43:03.815Z,7.67
2018-09-13T19:45:33.528Z,8.20
2018-09-13T19:48:03.090Z,7.20
2018-09-13T19:50:32.844Z,7.63
2018-09-13T19:53:02.498Z,9.57
2018-09-13T19:55:32.318Z,9.50
2018-09-13T19:58:01.860Z,13.57
2018-09-13T20:00:31.494Z,10.23
2018-09-13T20:03:01.267Z,7.80
2018-09-13T20:05:31.098Z,8.00
2018-09-13T20:08:00.810Z,15.73
2018-09-13T20:10:30.493Z,45.37
2018-09-13T20:13:00.097Z,19.40
2018-09-13T20:15:29.983Z,8.60
2018-09-13T20:17:59.766Z,8.77
2018-09-13T20:20:29.422Z,8.63
2018-09-13T20:22:59.321Z,9.07
2018-09-13T20:25:28.877Z,8.97
2018-09-13T20:27:58.583Z,9.10
2018-09-13T20:30:28.304Z,9.77
2018-09-13T20:32:57.826Z,8.73
2018-09-13T20:35:27.572Z,8.37
2018-09-13T20:37:58.391Z,8.63
2018-09-13T20:40:28.657Z,10.07
2018-09-13T20:42:58.456Z,10.17
2018-09-13T20:45:28.212Z,9.63
2018-09-13T20:47:58.573Z,9.47
2018-09-13T20:50:28.169Z,12.63
2018-09-13T20:52:58.081Z,10.93
2018-09-13T20:55:27.860Z,10.43
2018-09-13T20:57:57.408Z,14.63
2018-09-13T21:00:27.201Z,10.53
2018-09-13T21:02:56.994Z,10.80
2018-09-13T21:05:27.003Z,11.20
2018-09-13T21:07:56.602Z,8.47
2018-09-13T21:10:26.342Z,8.80
2018-09-13T21:12:56.346Z,8.43
2018-09-13T21:15:25.978Z,9.27
2018-09-13T21:17:55.663Z,9.03
2018-09-13T21:20:25.684Z,9.87
2018-09-13T21:22:55.300Z,10.53
2018-09-13T21:25:25.031Z,11.30
2018-09-13T21:27:55.877Z,10.57
2018-09-13T21:30:25.714Z,10.07
2018-09-13T21:32:55.509Z,10.90
2018-09-13T21:35:25.012Z,10.27
2018-09-13T21:37:54.890Z,9.90
2018-09-13T21:40:24.724Z,12.27
2018-09-13T21:42:54.300Z,10.67
2018-09-13T21:45:23.883Z,14.50
2018-09-13T21:47:53.404Z,14.07
2018-09-13T21:50:22.869Z,14.60
2018-09-13T21:52:52.484Z,11.97
2018-09-13T21:55:22.499Z,12.37
2018-09-13T21:57:52.133Z,11.97
2018-09-13T22:00:21.814Z,12.53
2018-09-13T22:02:51.385Z,12.00
2018-09-13T22:05:21.600Z,14.13
2018-09-13T22:07:51.930Z,13.50
2018-09-13T22:10:21.566Z,10.40
2018-09-13T22:12:51.151Z,10.90
2018-09-13T22:15:20.794Z,12.93
2018-09-13T22:17:50.630Z,10.13
2018-09-13T22:20:20.523Z,15.40
2018-09-13T22:22:50.077Z,11.77
2018-09-13T22:25:19.750Z,11.60
2018-09-13T22:27:49.528Z,10.80
2018-09-13T22:30:19.471Z,11.03
2018-09-13T22:32:48.961Z,12.57
2018-09-13T22:35:18.971Z,17.87
2018-09-13T22:37:48.848Z,14.30
2018-09-13T22:40:18.459Z,14.53
2018-09-13T22:42:47.969Z,15.47
2018-09-13T22:45:17.494Z,14.17
2018-09-13T22:47:47.056Z,31.40
2018-09-13T22:50:16.616Z,15.87
2018-09-13T22:52:46.153Z,16.50
2018-09-13T22:55:15.919Z,15.73
2018-09-13T22:57:45.804Z,12.23
2018-09-13T23:00:15.401Z,13.80
2018-09-13T23:02:50.736Z,12.97
2018-09-13T23:05:20.860Z,12.17
2018-09-13T23:07:50.786Z,12.33
2018-09-13T23:10:20.323Z,10.93
2018-09-13T23:12:49.880Z,10.63
2018-09-13T23:15:19.876Z,10.93
2018-09-13T23:17:50.401Z,10.37
2018-09-13T23:20:20.359Z,11.10
2018-09-13T23:22:49.914Z,9.73
2018-09-13T23:25:19.455Z,14.10
2018-09-13T23:27:49.086Z,12.57
2018-09-13T23:30:18.616Z,10.00
2018-09-13T23:32:48.169Z,10.03
2018-09-13T23:35:17.878Z,10.83
2018-09-13T23:37:47.429Z,10.03
2018-09-13T23:40:17.132Z,11.37
2018-09-13T23:42:46.666Z,13.00
2018-09-13T23:45:16.195Z,12.13
2018-09-13T23:47:45.794Z,16.00
2018-09-13T23:50:15.563Z,12.17
2018-09-13T23:52:45.352Z,9.03
2018-09-13T23:55:15.035Z,8.97
2018-09-13T23:57:44.674Z,10.47
